Advance, Indiana
Current Conditions -  °F | °C
As of 5:15 PM on Monday 20 Oct 2014 (Local Time) from KFKR Reporting Station
Broken Clouds Broken Clouds  
Wind Chill: 68°   Ceiling: 6500
Heat Index: 68°   Visibility: 10mi
Dew Point: 48°   Wind: 10mph
Humidity: 49%   Direction: 280°W
Pressure: 29.86"   Gusts: 18mph
Location:  40°N, 86.62°W
Report Text: KFKR 202115Z AUTO 28009G16KT 10SM SCT050 BKN065 20/09 A2986 RMK AO2 T01990088
Loading
Personal Weather Stations






























Interactive Weather Map New forecast layout! Learn more

10-Day Weather Forecast

Advertisements
Track Severe Weather on mobile